Time;durP1;ratioP1;P1;durP2;ratioP2;P2;SDS_P1;SDS_P2;PMS_P1;PMS_P2;Temp;Humidity;BMP_temperature;BMP_pressure;BME280_temperature;BME280_humidity;BME280_pressure;Samples;Min_cycle;Max_cycle;Signal;HPM_P1;HPM_P2
2023/09/07 00:02:11;;;;;;;7.55;5.57;;;;;;;;;;5101929;28;20039;-67
2023/09/07 00:04:36;;;;;;;7.32;5.50;;;;;;;;;;5096724;28;20041;-67
2023/09/07 00:07:02;;;;;;;8.50;5.60;;;;;;;;;;5113802;28;20363;-67
2023/09/07 00:09:27;;;;;;;9.95;5.97;;;;;;;;;;5112558;28;20295;-67
2023/09/07 00:11:52;;;;;;;10.02;6.30;;;;;;;;;;5113225;28;20024;-67
2023/09/07 00:14:17;;;;;;;11.10;6.28;;;;;;;;;;5110112;28;20042;-67
2023/09/07 00:16:43;;;;;;;9.00;5.63;;;;;;;;;;5101500;28;20542;-67
2023/09/07 00:19:08;;;;;;;7.88;6.00;;;;;;;;;;5098280;28;21337;-67
2023/09/07 00:21:33;;;;;;;9.67;5.83;;;;;;;;;;5094630;28;20044;-67
2023/09/07 00:23:58;;;;;;;9.82;6.88;;;;;;;;;;5101418;28;21005;-67
2023/09/07 00:26:24;;;;;;;11.57;6.35;;;;;;;;;;5104889;28;20031;-67
2023/09/07 00:28:49;;;;;;;8.77;6.07;;;;;;;;;;5107102;28;20076;-67
2023/09/07 00:31:14;;;;;;;7.40;5.30;;;;;;;;;;5102836;28;20165;-67
2023/09/07 00:33:40;;;;;;;8.07;5.57;;;;;;;;;;5105477;28;20276;-67
2023/09/07 00:36:05;;;;;;;9.43;5.90;;;;;;;;;;5099083;28;20282;-67
2023/09/07 00:38:30;;;;;;;9.02;5.85;;;;;;;;;;5104256;28;20285;-67
2023/09/07 00:40:56;;;;;;;7.20;5.72;;;;;;;;;;5106720;28;20451;-68
2023/09/07 00:43:21;;;;;;;9.02;6.60;;;;;;;;;;5105524;28;20478;-67
2023/09/07 00:45:46;;;;;;;8.00;5.78;;;;;;;;;;5100394;28;20024;-67
2023/09/07 00:48:12;;;;;;;8.87;5.83;;;;;;;;;;5105220;28;20410;-67
2023/09/07 00:50:38;;;;;;;7.78;5.95;;;;;;;;;;5064939;28;20434;-67
2023/09/07 00:53:06;;;;;;;8.10;6.38;;;;;;;;;;5064032;28;20077;-68
2023/09/07 00:55:33;;;;;;;8.35;6.25;;;;;;;;;;5065493;28;20865;-67
2023/09/07 00:57:58;;;;;;;9.57;6.72;;;;;;;;;;5069339;28;20035;-67
2023/09/07 01:00:23;;;;;;;7.18;5.95;;;;;;;;;;5052144;28;20806;-67
2023/09/07 01:02:48;;;;;;;11.10;7.23;;;;;;;;;;5061005;28;20047;-67
2023/09/07 01:05:14;;;;;;;8.60;6.63;;;;;;;;;;5056030;28;21233;-67
2023/09/07 01:07:50;;;;;;;11.00;6.22;;;;;;;;;;5091440;28;20016;-67
2023/09/07 01:10:15;;;;;;;7.00;5.47;;;;;;;;;;5102865;28;20055;-68
2023/09/07 01:12:40;;;;;;;7.70;6.00;;;;;;;;;;5111827;28;20114;-67
2023/09/07 01:15:06;;;;;;;8.93;6.20;;;;;;;;;;5112426;28;20050;-68
2023/09/07 01:17:33;;;;;;;9.75;6.13;;;;;;;;;;5096734;28;20361;-68
2023/09/07 01:19:59;;;;;;;6.75;6.05;;;;;;;;;;5100330;28;20024;-67
2023/09/07 01:22:25;;;;;;;8.25;5.60;;;;;;;;;;5092136;28;20073;-67
2023/09/07 01:24:51;;;;;;;8.48;6.00;;;;;;;;;;5092517;28;20012;-67
2023/09/07 01:27:16;;;;;;;11.25;6.45;;;;;;;;;;5091853;28;20105;-68
2023/09/07 01:29:42;;;;;;;9.80;5.97;;;;;;;;;;5092220;28;20359;-67
2023/09/07 01:32:09;;;;;;;12.07;6.27;;;;;;;;;;5106793;28;20024;-68
2023/09/07 01:34:35;;;;;;;8.15;6.18;;;;;;;;;;5111805;28;20301;-68
2023/09/07 01:37:00;;;;;;;8.27;5.67;;;;;;;;;;5109267;28;20525;-68
2023/09/07 01:39:26;;;;;;;8.70;5.85;;;;;;;;;;5091367;28;20290;-67
2023/09/07 01:41:51;;;;;;;9.40;5.90;;;;;;;;;;5106550;28;20064;-68
2023/09/07 01:44:16;;;;;;;7.13;5.20;;;;;;;;;;5109158;28;20652;-68
2023/09/07 01:46:42;;;;;;;7.53;5.83;;;;;;;;;;5108970;28;20296;-68
2023/09/07 01:49:07;;;;;;;7.00;5.43;;;;;;;;;;5102752;28;20254;-68
2023/09/07 01:51:32;;;;;;;7.70;5.33;;;;;;;;;;5092168;28;20020;-68
2023/09/07 01:53:57;;;;;;;7.10;5.57;;;;;;;;;;5092365;28;20286;-68
2023/09/07 01:56:22;;;;;;;8.97;6.03;;;;;;;;;;5104699;28;20301;-69
2023/09/07 01:58:48;;;;;;;9.15;6.32;;;;;;;;;;5091749;28;20289;-68
2023/09/07 02:01:26;;;;;;;7.83;6.00;;;;;;;;;;5107427;28;20016;-69
2023/09/07 02:03:51;;;;;;;9.05;5.75;;;;;;;;;;5097463;28;20290;-68
2023/09/07 02:06:17;;;;;;;8.98;6.10;;;;;;;;;;5092902;28;20486;-67
2023/09/07 02:08:42;;;;;;;8.23;6.07;;;;;;;;;;5091966;28;20028;-67
2023/09/07 02:11:07;;;;;;;10.27;6.35;;;;;;;;;;5088998;28;20028;-67
2023/09/07 02:13:33;;;;;;;7.97;5.75;;;;;;;;;;5063345;28;20123;-67
2023/09/07 02:15:58;;;;;;;8.52;5.68;;;;;;;;;;5055399;28;20765;-67
2023/09/07 02:18:23;;;;;;;7.05;5.82;;;;;;;;;;5052821;28;20035;-68
2023/09/07 02:20:48;;;;;;;9.25;6.25;;;;;;;;;;5053262;28;20912;-68
2023/09/07 02:23:14;;;;;;;8.63;6.13;;;;;;;;;;5080138;28;20032;-67
2023/09/07 02:25:40;;;;;;;10.98;6.22;;;;;;;;;;5092190;28;20567;-67
2023/09/07 02:28:05;;;;;;;8.70;5.85;;;;;;;;;;5092252;28;20491;-68
2023/09/07 02:30:31;;;;;;;8.40;5.88;;;;;;;;;;5092472;28;20024;-68
2023/09/07 02:32:57;;;;;;;9.50;6.50;;;;;;;;;;5094485;28;20055;-67
2023/09/07 02:35:22;;;;;;;9.57;6.20;;;;;;;;;;5091775;28;20035;-67
2023/09/07 02:37:47;;;;;;;10.27;5.97;;;;;;;;;;5093166;28;20407;-68
2023/09/07 02:40:14;;;;;;;8.27;6.60;;;;;;;;;;5092695;28;20288;-68
2023/09/07 02:42:41;;;;;;;11.35;6.38;;;;;;;;;;5108063;28;20051;-68
2023/09/07 02:45:06;;;;;;;8.82;5.72;;;;;;;;;;5105113;28;20059;-68
2023/09/07 02:47:31;;;;;;;9.00;6.03;;;;;;;;;;5113148;28;20032;-68
2023/09/07 02:49:57;;;;;;;8.23;5.80;;;;;;;;;;5084231;28;20016;-68
2023/09/07 02:52:22;;;;;;;10.70;6.53;;;;;;;;;;5078582;28;20039;-68
2023/09/07 02:54:47;;;;;;;7.78;6.07;;;;;;;;;;5070633;28;20016;-68
2023/09/07 02:57:13;;;;;;;9.38;6.30;;;;;;;;;;5065774;28;20776;-68
2023/09/07 02:59:38;;;;;;;8.15;6.55;;;;;;;;;;5066681;28;20127;-68
2023/09/07 03:02:03;;;;;;;8.03;6.93;;;;;;;;;;5061202;28;20032;-68
2023/09/07 03:04:28;;;;;;;9.60;6.85;;;;;;;;;;5067731;28;20288;-68
2023/09/07 03:06:54;;;;;;;9.18;6.90;;;;;;;;;;5069813;28;20039;-68
2023/09/07 03:09:19;;;;;;;8.83;6.97;;;;;;;;;;5090628;28;20030;-68
2023/09/07 03:11:44;;;;;;;11.48;7.35;;;;;;;;;;5114562;28;20379;-69
2023/09/07 03:14:10;;;;;;;10.67;6.50;;;;;;;;;;5100838;28;20382;-69
2023/09/07 03:16:35;;;;;;;7.30;6.07;;;;;;;;;;5106078;28;20278;-68
2023/09/07 03:19:00;;;;;;;8.43;6.87;;;;;;;;;;5094078;28;20372;-68
2023/09/07 03:21:29;;;;;;;8.87;7.33;;;;;;;;;;5093783;28;20278;-68
2023/09/07 03:23:54;;;;;;;7.70;6.78;;;;;;;;;;5094128;28;20301;-69
2023/09/07 03:26:19;;;;;;;7.88;7.07;;;;;;;;;;5094535;28;20048;-68
2023/09/07 03:28:45;;;;;;;9.43;6.33;;;;;;;;;;5093644;28;20557;-68
2023/09/07 03:31:11;;;;;;;8.55;6.43;;;;;;;;;;5094743;28;20757;-68
2023/09/07 03:33:36;;;;;;;8.00;6.20;;;;;;;;;;5095888;28;20042;-69
2023/09/07 03:36:02;;;;;;;7.77;6.07;;;;;;;;;;5094973;28;20273;-69
2023/09/07 03:38:28;;;;;;;9.60;6.53;;;;;;;;;;5095947;28;20811;-69
2023/09/07 03:40:53;;;;;;;8.40;6.23;;;;;;;;;;5094965;28;20043;-69
2023/09/07 03:43:18;;;;;;;11.50;7.15;;;;;;;;;;5095066;28;20761;-69
2023/09/07 03:45:44;;;;;;;7.07;5.90;;;;;;;;;;5099775;28;20019;-69
2023/09/07 03:48:09;;;;;;;9.20;6.73;;;;;;;;;;5104465;28;20266;-69
2023/09/07 03:50:35;;;;;;;9.30;6.72;;;;;;;;;;5106397;28;20364;-69
2023/09/07 03:53:00;;;;;;;8.25;6.55;;;;;;;;;;5099075;28;20042;-69
2023/09/07 03:55:26;;;;;;;11.38;7.20;;;;;;;;;;5106366;28;20355;-68
2023/09/07 03:57:51;;;;;;;9.35;7.10;;;;;;;;;;5110792;28;20374;-68
2023/09/07 04:00:17;;;;;;;8.03;6.77;;;;;;;;;;5099873;28;20032;-68
2023/09/07 04:02:43;;;;;;;9.02;7.53;;;;;;;;;;5107329;28;20273;-68
2023/09/07 04:05:10;;;;;;;9.60;6.30;;;;;;;;;;5105212;28;20028;-68
2023/09/07 04:07:35;;;;;;;7.95;6.25;;;;;;;;;;5095401;28;20274;-69
2023/09/07 04:10:01;;;;;;;10.17;6.70;;;;;;;;;;5098374;28;20081;-69
2023/09/07 04:12:26;;;;;;;8.75;6.97;;;;;;;;;;5106348;28;20320;-69
2023/09/07 04:14:51;;;;;;;9.93;6.90;;;;;;;;;;5113413;28;20106;-69
2023/09/07 04:17:16;;;;;;;7.80;6.27;;;;;;;;;;5110430;28;20076;-70
2023/09/07 04:19:43;;;;;;;10.23;6.53;;;;;;;;;;5105233;28;20320;-69
2023/09/07 04:22:08;;;;;;;9.45;7.38;;;;;;;;;;5108094;28;20292;-68
2023/09/07 04:24:33;;;;;;;9.65;6.40;;;;;;;;;;5105087;28;20019;-68
2023/09/07 04:27:00;;;;;;;9.35;6.40;;;;;;;;;;5108596;28;20023;-68
2023/09/07 04:29:26;;;;;;;9.63;7.10;;;;;;;;;;5106130;28;20023;-68
2023/09/07 04:31:51;;;;;;;8.98;6.97;;;;;;;;;;5108754;28;20031;-68
2023/09/07 04:34:16;;;;;;;10.67;7.33;;;;;;;;;;5093775;28;20017;-68
2023/09/07 04:36:41;;;;;;;9.95;6.70;;;;;;;;;;5098394;28;20258;-69
2023/09/07 04:39:07;;;;;;;10.48;7.35;;;;;;;;;;5105450;28;20512;-68
2023/09/07 04:41:32;;;;;;;8.40;7.18;;;;;;;;;;5099246;28;20015;-68
2023/09/07 04:43:57;;;;;;;10.80;7.75;;;;;;;;;;5095923;28;20048;-68
2023/09/07 04:46:23;;;;;;;10.00;7.53;;;;;;;;;;5098835;28;20019;-68
2023/09/07 04:48:48;;;;;;;15.13;8.38;;;;;;;;;;5096451;28;20517;-68
2023/09/07 04:51:13;;;;;;;10.63;7.97;;;;;;;;;;5100336;28;20016;-68
2023/09/07 04:53:39;;;;;;;11.05;8.20;;;;;;;;;;5097749;28;20631;-68
2023/09/07 04:56:05;;;;;;;10.82;8.70;;;;;;;;;;5103860;28;20035;-68
2023/09/07 04:58:30;;;;;;;10.93;9.18;;;;;;;;;;5107540;28;20024;-69
2023/09/07 05:01:03;;;;;;;11.38;9.52;;;;;;;;;;5107695;28;20020;-69
2023/09/07 05:03:28;;;;;;;13.82;8.95;;;;;;;;;;5107342;28;20024;-69
2023/09/07 05:05:53;;;;;;;11.07;8.90;;;;;;;;;;5092354;28;20070;-69
2023/09/07 05:08:20;;;;;;;10.52;8.50;;;;;;;;;;5101087;28;20372;-70
2023/09/07 05:10:45;;;;;;;11.18;8.35;;;;;;;;;;5099847;28;20077;-69
2023/09/07 05:13:10;;;;;;;13.95;9.48;;;;;;;;;;5107782;28;20424;-69
2023/09/07 05:15:35;;;;;;;10.40;8.83;;;;;;;;;;5102690;28;20024;-69
2023/09/07 05:18:00;;;;;;;12.47;9.77;;;;;;;;;;5107796;28;20293;-69
2023/09/07 05:20:26;;;;;;;11.47;8.93;;;;;;;;;;5102680;28;20812;-69
2023/09/07 05:22:52;;;;;;;12.30;9.05;;;;;;;;;;5111537;28;21819;-69
2023/09/07 05:25:20;;;;;;;10.43;8.60;;;;;;;;;;5076047;28;20065;-69
2023/09/07 05:27:45;;;;;;;10.77;9.13;;;;;;;;;;5066623;28;20019;-69
2023/09/07 05:30:10;;;;;;;10.00;8.93;;;;;;;;;;5063834;28;20054;-69
2023/09/07 05:32:36;;;;;;;11.38;9.02;;;;;;;;;;5059290;28;20028;-68
2023/09/07 05:35:01;;;;;;;12.35;9.35;;;;;;;;;;5071189;28;20019;-68
2023/09/07 05:37:27;;;;;;;10.60;9.13;;;;;;;;;;5066016;28;20073;-69
2023/09/07 05:39:52;;;;;;;12.85;9.10;;;;;;;;;;5064461;28;20024;-69
2023/09/07 05:42:17;;;;;;;10.33;9.00;;;;;;;;;;5060444;28;20907;-69
2023/09/07 05:44:42;;;;;;;9.77;8.77;;;;;;;;;;5062148;28;21031;-68
2023/09/07 05:47:08;;;;;;;10.68;8.38;;;;;;;;;;5061551;28;20342;-69
2023/09/07 05:49:33;;;;;;;12.23;8.38;;;;;;;;;;5058544;28;20022;-68
2023/09/07 05:51:58;;;;;;;11.45;9.20;;;;;;;;;;5067344;28;20853;-69
2023/09/07 05:54:24;;;;;;;11.38;8.32;;;;;;;;;;5094044;28;20544;-69
2023/09/07 05:56:49;;;;;;;10.95;8.98;;;;;;;;;;5097749;28;20467;-69
2023/09/07 05:59:14;;;;;;;10.27;7.97;;;;;;;;;;5097223;28;20024;-69
2023/09/07 06:01:39;;;;;;;9.30;7.73;;;;;;;;;;5096764;28;20286;-69
2023/09/07 06:04:05;;;;;;;11.73;8.00;;;;;;;;;;5075949;28;20757;-68
2023/09/07 06:06:30;;;;;;;10.52;8.38;;;;;;;;;;5087741;28;20093;-68
2023/09/07 06:08:56;;;;;;;8.52;7.63;;;;;;;;;;5052345;28;20130;-68
2023/09/07 06:11:21;;;;;;;8.57;7.37;;;;;;;;;;5081444;28;20423;-68
2023/09/07 06:13:47;;;;;;;12.27;7.63;;;;;;;;;;5095631;28;20269;-68
2023/09/07 06:16:12;;;;;;;9.35;6.57;;;;;;;;;;5098516;28;20270;-68
2023/09/07 06:18:37;;;;;;;10.70;7.65;;;;;;;;;;5097209;28;20058;-68
2023/09/07 06:21:04;;;;;;;9.83;7.53;;;;;;;;;;5098488;28;20501;-68
2023/09/07 06:23:29;;;;;;;8.38;6.95;;;;;;;;;;5103788;28;20273;-68
2023/09/07 06:25:54;;;;;;;9.85;7.18;;;;;;;;;;5097586;28;20024;-68
2023/09/07 06:28:20;;;;;;;9.17;7.77;;;;;;;;;;5097750;28;20028;-69
2023/09/07 06:30:45;;;;;;;8.15;6.25;;;;;;;;;;5098331;28;20278;-68
2023/09/07 06:33:11;;;;;;;8.83;6.53;;;;;;;;;;5089318;28;20027;-68
2023/09/07 06:35:36;;;;;;;9.23;6.57;;;;;;;;;;5096588;28;20258;-68
2023/09/07 06:38:02;;;;;;;9.97;7.53;;;;;;;;;;5095321;28;20777;-68
2023/09/07 06:40:27;;;;;;;7.97;6.35;;;;;;;;;;5099170;28;20783;-68
2023/09/07 06:42:53;;;;;;;7.10;6.40;;;;;;;;;;5113626;28;20327;-68
2023/09/07 06:45:18;;;;;;;9.98;6.32;;;;;;;;;;5110572;28;20280;-68
2023/09/07 06:47:44;;;;;;;8.52;7.07;;;;;;;;;;5102357;28;20036;-68
2023/09/07 06:50:10;;;;;;;10.10;6.18;;;;;;;;;;5067876;28;20082;-68
2023/09/07 06:52:35;;;;;;;8.63;6.40;;;;;;;;;;5061188;28;20038;-68
2023/09/07 06:55:00;;;;;;;8.70;6.77;;;;;;;;;;5066019;28;20794;-68
2023/09/07 06:57:25;;;;;;;8.18;6.60;;;;;;;;;;5054115;28;20293;-68
2023/09/07 06:59:51;;;;;;;7.95;6.25;;;;;;;;;;5059671;28;20557;-68
2023/09/07 07:02:16;;;;;;;10.43;6.60;;;;;;;;;;5057620;28;20048;-68
2023/09/07 07:04:41;;;;;;;8.73;6.17;;;;;;;;;;5084441;28;20502;-68
2023/09/07 07:07:06;;;;;;;9.75;6.20;;;;;;;;;;5105250;28;20619;-68
2023/09/07 07:09:32;;;;;;;8.35;6.32;;;;;;;;;;5097957;28;20028;-68
2023/09/07 07:12:00;;;;;;;8.43;5.75;;;;;;;;;;5107174;28;20027;-68
2023/09/07 07:14:25;;;;;;;7.68;5.93;;;;;;;;;;5111749;28;20027;-68
2023/09/07 07:16:51;;;;;;;9.52;6.05;;;;;;;;;;5112442;28;20076;-69
2023/09/07 07:19:16;;;;;;;9.52;6.10;;;;;;;;;;5109265;28;20397;-68
2023/09/07 07:21:41;;;;;;;12.23;6.90;;;;;;;;;;5104857;28;20022;-67
2023/09/07 07:24:07;;;;;;;8.20;5.97;;;;;;;;;;5106958;28;20488;-69
2023/09/07 07:26:32;;;;;;;10.13;6.30;;;;;;;;;;5098774;28;20356;-68
2023/09/07 07:28:58;;;;;;;7.53;5.60;;;;;;;;;;5095510;28;20027;-68
2023/09/07 07:31:23;;;;;;;12.38;6.60;;;;;;;;;;5096045;28;20364;-69
2023/09/07 07:33:48;;;;;;;7.37;6.57;;;;;;;;;;5089859;28;20054;-68
2023/09/07 07:36:14;;;;;;;7.38;5.85;;;;;;;;;;5094138;28;20270;-69
2023/09/07 07:38:39;;;;;;;9.47;6.37;;;;;;;;;;5093691;28;20459;-68
2023/09/07 07:41:04;;;;;;;7.35;5.70;;;;;;;;;;5102067;28;20280;-68
2023/09/07 07:43:30;;;;;;;7.32;6.13;;;;;;;;;;5111941;28;20016;-68
2023/09/07 07:45:55;;;;;;;10.25;6.15;;;;;;;;;;5113027;28;20031;-68
2023/09/07 07:48:20;;;;;;;8.18;6.05;;;;;;;;;;5112262;28;20020;-68
2023/09/07 07:50:46;;;;;;;8.00;5.87;;;;;;;;;;5108279;28;20030;-68
2023/09/07 07:53:11;;;;;;;8.97;6.43;;;;;;;;;;5102759;28;20625;-68
2023/09/07 07:55:38;;;;;;;8.90;6.40;;;;;;;;;;5062023;28;20435;-69
2023/09/07 07:58:10;;;;;;;8.25;5.97;;;;;;;;;;5086260;28;20170;-69
2023/09/07 08:00:36;;;;;;;8.95;6.32;;;;;;;;;;5068125;28;20039;-68
2023/09/07 08:03:03;;;;;;;7.97;5.88;;;;;;;;;;5070753;28;20801;-69
2023/09/07 08:05:28;;;;;;;7.55;5.35;;;;;;;;;;5104186;28;20021;-69
2023/09/07 08:07:53;;;;;;;8.25;5.50;;;;;;;;;;5096690;28;20362;-69
2023/09/07 08:10:19;;;;;;;8.50;5.45;;;;;;;;;;5086207;28;20066;-69
2023/09/07 08:12:44;;;;;;;6.50;5.20;;;;;;;;;;5096082;28;20407;-69
2023/09/07 08:15:09;;;;;;;6.82;4.95;;;;;;;;;;5102120;28;20541;-69
2023/09/07 08:17:35;;;;;;;7.10;4.78;;;;;;;;;;5076907;28;20050;-69
2023/09/07 08:20:00;;;;;;;8.00;5.28;;;;;;;;;;5061827;28;20101;-69
2023/09/07 08:22:27;;;;;;;8.80;4.93;;;;;;;;;;5065652;28;20016;-69
2023/09/07 08:24:53;;;;;;;6.95;5.20;;;;;;;;;;5050392;28;20274;-69
2023/09/07 08:27:19;;;;;;;8.80;5.32;;;;;;;;;;5064187;28;20119;-69
2023/09/07 08:29:48;;;;;;;6.88;4.97;;;;;;;;;;5077489;28;20382;-69
2023/09/07 08:32:14;;;;;;;7.13;4.53;;;;;;;;;;5060967;28;20039;-69
2023/09/07 08:34:41;;;;;;;7.82;4.47;;;;;;;;;;5055875;28;20131;-69
2023/09/07 08:37:08;;;;;;;7.78;4.82;;;;;;;;;;5061312;28;20048;-69
2023/09/07 08:39:34;;;;;;;7.68;5.03;;;;;;;;;;5065698;28;20868;-69
2023/09/07 08:42:00;;;;;;;6.00;4.45;;;;;;;;;;5107479;28;20020;-69
2023/09/07 08:44:26;;;;;;;7.70;4.63;;;;;;;;;;5099651;28;20448;-69
2023/09/07 08:46:51;;;;;;;5.95;4.30;;;;;;;;;;5093141;28;20039;-69
2023/09/07 08:49:19;;;;;;;6.45;4.85;;;;;;;;;;5078562;28;20028;-69
2023/09/07 08:51:44;;;;;;;6.05;4.18;;;;;;;;;;5099999;28;20020;-69
2023/09/07 08:54:10;;;;;;;9.07;4.03;;;;;;;;;;5096959;28;20026;-69
2023/09/07 08:56:35;;;;;;;6.22;4.35;;;;;;;;;;5112285;28;20031;-69
2023/09/07 08:59:00;;;;;;;6.68;4.15;;;;;;;;;;5093715;28;20032;-70
2023/09/07 09:01:26;;;;;;;6.72;4.00;;;;;;;;;;5102972;28;20020;-69
2023/09/07 09:03:52;;;;;;;6.63;3.75;;;;;;;;;;5093178;28;20482;-68
2023/09/07 09:06:18;;;;;;;5.18;3.65;;;;;;;;;;5112200;28;20036;-68
2023/09/07 09:08:54;;;;;;;10.50;4.22;;;;;;;;;;5102528;28;20458;-68
2023/09/07 09:11:20;;;;;;;5.65;4.10;;;;;;;;;;5096949;28;20027;-68
2023/09/07 09:13:46;;;;;;;4.75;3.55;;;;;;;;;;5083455;28;20088;-68
2023/09/07 09:16:13;;;;;;;5.20;3.70;;;;;;;;;;5084562;28;20036;-68
2023/09/07 09:18:39;;;;;;;8.13;4.32;;;;;;;;;;5100360;28;20116;-68
2023/09/07 09:21:05;;;;;;;6.40;4.13;;;;;;;;;;5100713;28;20027;-68
2023/09/07 09:23:34;;;;;;;5.53;3.53;;;;;;;;;;5102049;28;20024;-68
2023/09/07 09:26:00;;;;;;;7.68;3.60;;;;;;;;;;5105310;28;20024;-68
2023/09/07 09:28:26;;;;;;;5.82;4.15;;;;;;;;;;5108269;28;20019;-68
2023/09/07 09:30:51;;;;;;;6.60;4.65;;;;;;;;;;5106391;28;20016;-68
2023/09/07 09:33:19;;;;;;;5.63;3.47;;;;;;;;;;5109574;28;20046;-68
2023/09/07 09:35:44;;;;;;;6.68;2.88;;;;;;;;;;5106608;28;20265;-68
2023/09/07 09:38:10;;;;;;;11.70;4.75;;;;;;;;;;5109381;28;20032;-68
2023/09/07 09:40:35;;;;;;;5.10;3.63;;;;;;;;;;5105672;28;20028;-68
2023/09/07 09:43:01;;;;;;;7.78;3.95;;;;;;;;;;5108751;28;20028;-68
2023/09/07 09:45:27;;;;;;;5.10;3.35;;;;;;;;;;5105351;28;20020;-69
2023/09/07 09:47:54;;;;;;;6.65;3.15;;;;;;;;;;5107828;28;20080;-68
2023/09/07 09:50:20;;;;;;;5.65;3.80;;;;;;;;;;5084396;28;20012;-68
2023/09/07 09:52:45;;;;;;;5.15;3.28;;;;;;;;;;5103414;28;20039;-69
2023/09/07 09:55:12;;;;;;;4.68;3.15;;;;;;;;;;5090945;28;20024;-68
2023/09/07 09:57:38;;;;;;;4.72;3.75;;;;;;;;;;5102359;28;20023;-69
2023/09/07 10:02:44;;;;;;;5.85;3.47;;;;;;;;;;5090636;28;20097;-69
2023/09/07 10:05:09;;;;;;;7.82;3.63;;;;;;;;;;5088138;28;20097;-69
2023/09/07 10:07:42;;;;;;;5.68;3.58;;;;;;;;;;5087365;28;20028;-68
2023/09/07 10:10:09;;;;;;;4.45;3.10;;;;;;;;;;5087950;28;20043;-69
2023/09/07 10:12:40;;;;;;;3.88;2.80;;;;;;;;;;5060214;28;20445;-69
2023/09/07 10:15:05;;;;;;;4.45;2.83;;;;;;;;;;5085768;28;20032;-68
2023/09/07 10:17:31;;;;;;;4.93;3.00;;;;;;;;;;5084462;28;20487;-68
2023/09/07 10:20:05;;;;;;;7.75;3.35;;;;;;;;;;5075088;28;20364;-69
2023/09/07 10:22:30;;;;;;;5.10;2.97;;;;;;;;;;5090673;28;20056;-68
2023/09/07 10:24:59;;;;;;;3.78;2.75;;;;;;;;;;5090015;28;20111;-68
2023/09/07 10:27:24;;;;;;;4.72;3.15;;;;;;;;;;5083502;28;20024;-68
2023/09/07 10:29:52;;;;;;;7.00;3.03;;;;;;;;;;5088293;28;20031;-68
2023/09/07 10:32:21;;;;;;;7.22;3.17;;;;;;;;;;5082012;28;20270;-69
2023/09/07 10:34:48;;;;;;;5.75;3.45;;;;;;;;;;5072295;28;20059;-69
2023/09/07 10:37:14;;;;;;;4.90;3.20;;;;;;;;;;5079059;28;20032;-67
2023/09/07 10:39:42;;;;;;;4.20;2.80;;;;;;;;;;5038760;28;20082;-68
2023/09/07 10:42:08;;;;;;;5.38;3.10;;;;;;;;;;5034607;28;20029;-68
2023/09/07 10:44:33;;;;;;;6.32;3.03;;;;;;;;;;5044340;28;20361;-68
2023/09/07 10:46:59;;;;;;;5.80;3.13;;;;;;;;;;5047961;28;20478;-68
2023/09/07 10:49:24;;;;;;;5.47;3.50;;;;;;;;;;5046862;28;20349;-69
2023/09/07 10:51:50;;;;;;;4.63;3.10;;;;;;;;;;5043191;28;20332;-68
2023/09/07 10:54:16;;;;;;;5.15;3.17;;;;;;;;;;5045297;28;20133;-68
2023/09/07 10:56:43;;;;;;;6.07;3.22;;;;;;;;;;5046039;28;20032;-68
2023/09/07 10:59:09;;;;;;;5.40;3.20;;;;;;;;;;5046686;28;20020;-68
2023/09/07 11:01:34;;;;;;;4.50;3.03;;;;;;;;;;5047332;28;20027;-67
2023/09/07 11:03:59;;;;;;;4.35;2.90;;;;;;;;;;5050061;28;21243;-68
2023/09/07 11:06:24;;;;;;;4.57;2.90;;;;;;;;;;5044835;28;20016;-67
2023/09/07 11:08:50;;;;;;;4.25;2.90;;;;;;;;;;5074134;28;20675;-67
2023/09/07 11:11:15;;;;;;;4.87;2.67;;;;;;;;;;5089188;28;20032;-68
2023/09/07 11:13:41;;;;;;;6.07;3.17;;;;;;;;;;5078961;28;20953;-68
2023/09/07 11:16:09;;;;;;;5.28;3.05;;;;;;;;;;5090976;28;20028;-68
2023/09/07 11:18:35;;;;;;;6.45;2.78;;;;;;;;;;5092861;28;20028;-68
2023/09/07 11:21:03;;;;;;;4.30;3.15;;;;;;;;;;5089152;28;20107;-68
2023/09/07 11:23:29;;;;;;;5.88;3.47;;;;;;;;;;5081297;28;20039;-68
2023/09/07 11:25:54;;;;;;;7.18;3.00;;;;;;;;;;5090095;28;20024;-68
2023/09/07 11:28:22;;;;;;;6.00;3.20;;;;;;;;;;5087382;28;20056;-68
2023/09/07 11:30:52;;;;;;;4.63;3.08;;;;;;;;;;5085852;28;20344;-68
2023/09/07 11:33:17;;;;;;;4.20;2.92;;;;;;;;;;5082945;28;20024;-68
2023/09/07 11:35:43;;;;;;;6.13;2.97;;;;;;;;;;5091673;28;20024;-68
2023/09/07 11:38:10;;;;;;;4.50;3.10;;;;;;;;;;5085507;28;20030;-68
2023/09/07 11:40:36;;;;;;;4.38;3.10;;;;;;;;;;5090207;28;20070;-68
2023/09/07 11:43:01;;;;;;;6.13;3.35;;;;;;;;;;5086913;28;20024;-68
2023/09/07 11:45:26;;;;;;;5.37;2.90;;;;;;;;;;5090706;28;20491;-68
2023/09/07 11:47:52;;;;;;;4.20;2.90;;;;;;;;;;5093093;28;20273;-68
2023/09/07 11:50:18;;;;;;;4.28;2.80;;;;;;;;;;5092610;28;20020;-69
2023/09/07 11:52:43;;;;;;;4.00;2.83;;;;;;;;;;5091077;28;20028;-69
2023/09/07 11:55:10;;;;;;;4.20;2.95;;;;;;;;;;5080443;28;20070;-68
2023/09/07 11:57:35;;;;;;;4.03;2.70;;;;;;;;;;5090768;28;20043;-68
2023/09/07 12:00:01;;;;;;;4.50;2.67;;;;;;;;;;5092374;28;20028;-67
2023/09/07 12:02:26;;;;;;;4.60;2.92;;;;;;;;;;5092381;28;20034;-68
2023/09/07 12:04:51;;;;;;;5.22;2.80;;;;;;;;;;5092453;28;20039;-68
2023/09/07 12:07:17;;;;;;;4.03;2.70;;;;;;;;;;5087180;28;20047;-68
2023/09/07 12:09:42;;;;;;;5.83;2.83;;;;;;;;;;5084410;28;20012;-68
2023/09/07 12:12:07;;;;;;;3.93;2.50;;;;;;;;;;5092454;28;20640;-68
2023/09/07 12:14:32;;;;;;;4.20;2.70;;;;;;;;;;5074228;28;20285;-68
2023/09/07 12:16:58;;;;;;;3.70;3.00;;;;;;;;;;5073185;28;20278;-68
2023/09/07 12:19:23;;;;;;;3.60;2.63;;;;;;;;;;5073381;28;20020;-66
2023/09/07 12:21:49;;;;;;;4.55;3.03;;;;;;;;;;5075100;28;20107;-69
2023/09/07 12:24:14;;;;;;;5.70;2.85;;;;;;;;;;5074371;28;20024;-67
2023/09/07 12:26:39;;;;;;;4.37;2.80;;;;;;;;;;5072318;28;20021;-69
2023/09/07 12:29:05;;;;;;;3.57;2.40;;;;;;;;;;5072780;28;20024;-69
2023/09/07 12:31:31;;;;;;;3.75;2.83;;;;;;;;;;5096066;28;20016;-69
2023/09/07 12:33:56;;;;;;;4.97;3.22;;;;;;;;;;5086735;28;20091;-68
2023/09/07 12:36:22;;;;;;;3.83;2.90;;;;;;;;;;5077174;28;20028;-68
2023/09/07 12:38:47;;;;;;;4.07;2.63;;;;;;;;;;5083628;28;20021;-68
2023/09/07 12:41:12;;;;;;;3.80;2.60;;;;;;;;;;5090592;28;20038;-68
2023/09/07 12:43:37;;;;;;;6.23;3.10;;;;;;;;;;5077742;28;20060;-68
2023/09/07 12:46:03;;;;;;;4.47;2.90;;;;;;;;;;5071588;28;20301;-68
2023/09/07 12:48:28;;;;;;;3.90;2.63;;;;;;;;;;5074772;28;20307;-68
2023/09/07 12:50:55;;;;;;;3.77;2.93;;;;;;;;;;5078371;28;20099;-68
2023/09/07 12:53:24;;;;;;;4.32;3.03;;;;;;;;;;5086924;28;20278;-68
2023/09/07 12:55:49;;;;;;;6.13;2.90;;;;;;;;;;5077260;28;20097;-68
2023/09/07 12:58:14;;;;;;;4.43;2.92;;;;;;;;;;5090426;28;20082;-68
2023/09/07 13:00:40;;;;;;;4.43;2.57;;;;;;;;;;5090211;28;20071;-68
2023/09/07 13:03:05;;;;;;;4.77;3.00;;;;;;;;;;5091340;28;20020;-68
2023/09/07 13:05:30;;;;;;;4.80;3.00;;;;;;;;;;5091122;28;20016;-68
2023/09/07 13:07:57;;;;;;;4.07;2.80;;;;;;;;;;5081041;28;20024;-68
2023/09/07 13:10:22;;;;;;;7.05;2.85;;;;;;;;;;5077951;28;20058;-68
2023/09/07 13:12:47;;;;;;;4.97;2.90;;;;;;;;;;5081308;28;20020;-68
2023/09/07 13:15:13;;;;;;;4.17;2.47;;;;;;;;;;5077529;28;20282;-68
2023/09/07 13:17:38;;;;;;;4.33;2.93;;;;;;;;;;5091671;28;20273;-68
2023/09/07 13:20:03;;;;;;;5.50;2.90;;;;;;;;;;5091423;28;20058;-68
2023/09/07 13:22:29;;;;;;;5.35;2.70;;;;;;;;;;5091683;28;20748;-68
2023/09/07 13:24:54;;;;;;;4.22;2.80;;;;;;;;;;5087230;28;20028;-67
2023/09/07 13:27:19;;;;;;;6.83;3.03;;;;;;;;;;5070904;28;20032;-68
2023/09/07 13:29:44;;;;;;;4.87;2.90;;;;;;;;;;5073134;28;20622;-67
2023/09/07 13:32:10;;;;;;;4.47;2.70;;;;;;;;;;5072090;28;20029;-68
2023/09/07 13:34:35;;;;;;;4.13;2.67;;;;;;;;;;5077500;28;20123;-68
2023/09/07 13:37:00;;;;;;;4.07;2.88;;;;;;;;;;5078475;28;20047;-68
2023/09/07 13:39:26;;;;;;;4.67;3.07;;;;;;;;;;5077920;28;20123;-68
2023/09/07 13:41:51;;;;;;;3.55;2.70;;;;;;;;;;5087708;28;20024;-68
2023/09/07 13:44:16;;;;;;;4.10;3.03;;;;;;;;;;5090490;28;20039;-68
2023/09/07 13:46:43;;;;;;;6.38;2.53;;;;;;;;;;5082900;28;20777;-68
2023/09/07 13:49:08;;;;;;;4.95;3.30;;;;;;;;;;5085222;28;20055;-68
2023/09/07 13:51:39;;;;;;;4.50;3.03;;;;;;;;;;5069362;28;20447;-67
2023/09/07 13:54:05;;;;;;;5.30;3.08;;;;;;;;;;5084116;28;20032;-68
2023/09/07 13:56:30;;;;;;;4.40;2.50;;;;;;;;;;5070522;28;20048;-67
2023/09/07 13:58:55;;;;;;;4.03;2.75;;;;;;;;;;5060049;28;20028;-67
2023/09/07 14:01:22;;;;;;;3.90;2.60;;;;;;;;;;5044646;28;20020;-67
2023/09/07 14:03:47;;;;;;;5.25;2.78;;;;;;;;;;5037324;28;20259;-67
2023/09/07 14:06:12;;;;;;;4.20;2.70;;;;;;;;;;5042578;28;20031;-67
2023/09/07 14:08:37;;;;;;;4.87;2.70;;;;;;;;;;5047943;28;20869;-68
2023/09/07 14:11:03;;;;;;;4.93;2.63;;;;;;;;;;5047460;28;20335;-68
2023/09/07 14:13:28;;;;;;;6.03;2.60;;;;;;;;;;5042038;28;20036;-67
2023/09/07 14:15:53;;;;;;;4.07;2.80;;;;;;;;;;5043473;28;20874;-68
2023/09/07 14:18:18;;;;;;;3.87;2.80;;;;;;;;;;5044494;28;20035;-67
2023/09/07 14:20:44;;;;;;;3.53;2.77;;;;;;;;;;5046794;28;21197;-67
2023/09/07 14:23:09;;;;;;;4.20;3.10;;;;;;;;;;5047220;28;20288;-67
2023/09/07 14:25:34;;;;;;;4.47;3.10;;;;;;;;;;5048574;28;20024;-67
2023/09/07 14:28:00;;;;;;;5.78;2.63;;;;;;;;;;5048610;28;20102;-67
2023/09/07 14:30:25;;;;;;;5.07;2.60;;;;;;;;;;5038117;28;20024;-67
2023/09/07 14:32:50;;;;;;;6.20;2.67;;;;;;;;;;5036396;28;21137;-67
2023/09/07 14:35:15;;;;;;;3.53;2.50;;;;;;;;;;5043676;28;20024;-67